Meteo Giornale » Osservazioni meteo Italia » Genova-Sestri

ore: 23:50 - Osservazioni Meteo Genova-Sestri
Lat. 44° 25' N Lon. 8° 51' E Alt. 2 metri s.l.m.

sereno Europe/Rome

13 °C

Sereno

Temp. 24 Ore

13 °C

20 °C

Nord

1.8 Km/h

Dew point 7 °C

Umidità 66 %

Visibilità  10 Km

Il sole sorge alle ore 06:20

Il sole tramonta alle ore 18:41

Data e Ora Cielo e Fenomeni T °C DP °C Um. % Pres. hPa Vis. km Vento km/h
Ieri h: 23:50 sereno Sereno 13 7 66 1022 10 N 1.8
Ieri h: 23:20 sereno Sereno 13 9 76 1022 10 N 3.7
Ieri h: 22:50 sereno Sereno 13 10 81 1022 10 N 3.7
Ieri h: 22:20 sereno Sereno 13 10 81 1022 10 N 5.5
Ieri h: 21:50 sereno Sereno 13 10 81 1022 10 N 3.7
Ieri h: 21:20 sereno Sereno 13 9 76 1022 10 N 3.7
Ieri h: 20:50 sereno Sereno 13 11 87 1022 10 N 3.7
Ieri h: 20:20 sereno Sereno 13 10 81 1022 10 N 1.8
Ieri h: 19:50 sereno Sereno 14 10 76 1022 10 N 0
Ieri h: 19:20 sereno Sereno 14 10 76 1022 10 N 3.7
Ieri h: 18:50 sereno Sereno 14 10 76 1021 10 N 5.5
Ieri h: 18:20 sereno Sereno 14 10 76 1021 10 N 3.7
Ieri h: 17:50 sereno Sereno 15 11 76 1022 10 N 3.7
Ieri h: 17:20 sereno Sereno 15 11 76 1022 10 SE 11.1
Ieri h: 16:50 sereno Sereno 15 11 76 1022 10 SE 9.3
Ieri h: 16:20 sereno Sereno 16 11 72 1022 10 SE 7.4
Ieri h: 15:50 sereno Sereno 16 11 72 1022 10 SE 9.3
Ieri h: 15:20 sereno Sereno 16 12 77 1022 10 SE 14.8
Ieri h: 14:50 sereno Sereno 16 11 72 1022 10 SE 22.2
Ieri h: 14:20 sereno Sereno 18 9 55 1022 10 SE 14.8
Ieri h: 13:50 sereno Sereno 17 10 63 1023 10 SE 20.3
Ieri h: 13:20 sereno Sereno 16 9 63 1023 10 SE 16.7
Ieri h: 12:50 sereno Sereno 17 8 55 1023 10 SE 18.5
Ieri h: 12:20 sereno Sereno 16 9 63 1024 10 S/SE 11.1
Ieri h: 11:50 sereno Sereno 16 10 67 1024 10 SE 22.2
Ieri h: 10:50 sereno Sereno 19 2 32 1023 10 S 7.4
Ieri h: 10:20 sereno Sereno 20 -3 20 1024 10 E/NE 18.5
Ieri h: 09:50 sereno Sereno 19 -0 27 1024 10 N 9.3
Ieri h: 09:20 sereno Sereno 19 -3 22 1024 10 N 7.4
Ieri h: 08:50 sereno Sereno 17 -3 25 1024 10 N 7.4
Ieri h: 08:20 sereno Sereno 17 -4 23 1024 10 N 1.8
Ieri h: 07:50 sereno Sereno 16 -4 24 1024 10 N 5.5
Ieri h: 06:50 sereno Sereno 15 -6 22 1024 10 N 3.7
Ieri h: 06:20 sereno Sereno 15 -7 21 1023 10 E/NE 13
Ieri h: 05:50 sereno Sereno 16 -8 18 1023 10 E/NE 14.8
Ieri h: 05:20 sereno Sereno 16 -8 18 1023 10 E/NE 14.8
Ieri h: 04:50 sereno Sereno 16 -9 17 1023 10 E/NE 16.7
Ieri h: 04:20 sereno Sereno 16 -10 15 1023 10 E/NE 11.1
Ieri h: 03:50 sereno Sereno 16 -10 15 1024 10 E/NE 11.1
Ieri h: 03:20 sereno Sereno 16 -9 17 1024 10 NE 14.8
Ieri h: 01:50 sereno Sereno 17 -9 15 1024 10 E/NE 13
Ieri h: 01:20 sereno Sereno 17 -9 15 1024 10 E/NE 14.8
Ieri h: 00:50 sereno Sereno 17 -9 15 1024 10 E/NE 16.7
Ieri h: 00:20 sereno Sereno 17 -10 14 1025 10 E/NE 13
Ieri h: 23:50 sereno Sereno 18 -10 13 1025 10 NE 14.8